Camby, Indiana
Current Conditions -  °F | °C
As of 9:54 AM on Thursday 23 Oct 2014 (Local Time) from KIND Reporting Station
Haze Haze  
Wind Chill: 43°   Ceiling: Unl
Heat Index: 43°   Visibility: 5mi
Dew Point: 40°   Wind: 3mph
Humidity: 89%   Direction: 180°S
Pressure: 30.25"   Gusts: NA
Location:  39.66°N, 86.32°W
Report Text: KIND 231354Z 18003KT 5SM BR SCT250 06/04 A3025 RMK AO2 SLP248 T00610044
Loading
Personal Weather Stations






























Interactive Weather Map
Tropical Storm Tracking
New forecast layout! Learn more

10-Day Weather Forecast

Advertisements
Track Severe Weather on mobile